Aérodrome :
LOGIN :

S'inscrire | Disclaimer

   EN    FR    IT 

 










Légende :    VFR   VFR Marginal   IFR   IFR Intensif   IFR Très Intensif
Visi : 
Plafond : 
>= 8 km
>= 3000ft
5 à 8 km
1000 à 3000 ft
1500m à 5 km
500 à 1000 ft
800 à 1500m
200 à 500 ft
< 800m
< 200 ft
Symboles :   Orages  Brouillard  Fortes neiges  Fortes précipitations  Vent > 20 kt
SIGMETs :   Divers  Orages  Givrage  Turbulence  Onde Orograph.  Cendres Volcan.







- Altitude de l'aérodrome : 468 ft
- Code IATA : GRO


LEGE - Girona Costa Brava

DERNIER METAR :
  • 281200Z 06001KT 9999 FEW050 14/M04 Q1016

METARs EXPIRÉS :
  • 281130Z 22004KT 170V320 9999 FEW050 14/M03 Q1017
  • 281100Z 11003KT 9999 FEW050 14/M02 Q1017
  • 281030Z 19004KT 140V230 9999 FEW050 14/M03 Q1017
  • 281000Z 17002KT 9999 FEW040 13/M03 Q1017
  • 280930Z VRB02KT 9999 FEW040 12/M01 Q1017
  • 280900Z VRB01KT 9999 FEW025 11/M00 Q1017

TAF TAF LEGE
Valide du 28 à 12h jusqu'au 29 à 12h UTC


281100Z 2812/2912 VRB04KT 9999 SCT024 TX19/2813Z TN04/2906Z
TEMPO 2814/2818 16010KT
Pas de NOTAMs connus pour ce terrain.



MET'MAP, la Météo Aéronautique d'un coup d'oeil ! - Copyright ORBIFLY Décembre 2007 - Disclaimer

ORBIFLY MET'MAP TEAM :

Programmation & Développement : Alexandra Zaïnal
Conception & Développement : Baudouin d'Aumeries
Co-Programmation & Développement : Marc-Olivier Méhu
Soutien technique & logistique : Manuel Goepfert

Contact : metmap@orbifly.com




SOURCES & CREDITS :

   NOAA